Terminal Aerodrome Forecast
Issued by NWS Green Bay, WI

Home | Current Version | Previous Version | Text Only | Print | Product List | Glossary Off
Versions: 1 2 3 4 5 6 7 8 9 10 11 12 13 14 15 16 17 18 19 20 21 22 23 24 25 26 27 28 29 30 31 32 33 34 35 36 37 38 39 40 41 42

055
FTUS43 KGRB 170520
TAFGRB
TAF
KGRB 170520Z 1706/1806 10008KT P6SM -SHRA SCT015 OVC030
      TEMPO 1706/1708 4SM SHRA BR BKN015
     FM170800 13007KT 6SM BR SCT007 OVC015
      TEMPO 1708/1712 3SM SHRA BR BKN007
     FM171600 20011G18KT P6SM SCT015 OVC025 PROB30 1720/1724 3SM
      -TSRA BKN015CB=

USA.gov is the U.S. government's official web portal to all federal, state and local government web resources and services.